sensor_id;sensor_type;location;lat;lon;timestamp;pressure;altitude;pressure_sealevel;temperature;humidity
45541;BME280;31265;49.680;8.608;2023-05-25T00:02:06;101109.69;;;9.32;100.00
45541;BME280;31265;49.680;8.608;2023-05-25T00:04:35;101118.41;;;9.36;100.00
45541;BME280;31265;49.680;8.608;2023-05-25T00:07:04;101110.09;;;9.50;100.00
45541;BME280;31265;49.680;8.608;2023-05-25T00:09:33;101104.41;;;9.55;100.00
45541;BME280;31265;49.680;8.608;2023-05-25T00:12:02;101094.84;;;9.43;100.00
45541;BME280;31265;49.680;8.608;2023-05-25T00:14:30;101103.91;;;9.43;100.00
45541;BME280;31265;49.680;8.608;2023-05-25T00:17:00;101098.06;;;9.47;100.00
45541;BME280;31265;49.680;8.608;2023-05-25T00:19:30;101095.06;;;9.32;100.00
45541;BME280;31265;49.680;8.608;2023-05-25T00:21:59;101101.16;;;9.30;100.00
45541;BME280;31265;49.680;8.608;2023-05-25T00:24:29;101095.94;;;9.26;100.00
45541;BME280;31265;49.680;8.608;2023-05-25T00:26:58;101095.16;;;9.39;100.00
45541;BME280;31265;49.680;8.608;2023-05-25T00:29:27;101103.06;;;9.22;100.00
45541;BME280;31265;49.680;8.608;2023-05-25T00:31:55;101095.63;;;9.17;100.00
45541;BME280;31265;49.680;8.608;2023-05-25T00:34:25;101099.47;;;9.00;100.00
45541;BME280;31265;49.680;8.608;2023-05-25T00:36:53;101094.25;;;8.97;100.00
45541;BME280;31265;49.680;8.608;2023-05-25T00:39:22;101097.56;;;8.95;100.00
45541;BME280;31265;49.680;8.608;2023-05-25T00:41:51;101108.41;;;8.93;100.00
45541;BME280;31265;49.680;8.608;2023-05-25T00:44:19;101102.66;;;8.91;100.00
45541;BME280;31265;49.680;8.608;2023-05-25T00:46:49;101106.41;;;8.80;100.00
45541;BME280;31265;49.680;8.608;2023-05-25T00:49:19;101102.00;;;8.72;100.00
45541;BME280;31265;49.680;8.608;2023-05-25T00:51:51;101109.22;;;8.61;100.00
45541;BME280;31265;49.680;8.608;2023-05-25T00:54:32;101111.53;;;8.44;100.00
45541;BME280;31265;49.680;8.608;2023-05-25T00:57:02;101115.97;;;8.34;100.00
45541;BME280;31265;49.680;8.608;2023-05-25T00:59:35;101110.72;;;8.30;100.00
45541;BME280;31265;49.680;8.608;2023-05-25T01:02:08;101125.03;;;8.15;100.00
45541;BME280;31265;49.680;8.608;2023-05-25T01:04:39;101124.59;;;8.11;100.00
45541;BME280;31265;49.680;8.608;2023-05-25T01:07:16;101119.47;;;8.02;100.00
45541;BME280;31265;49.680;8.608;2023-05-25T01:09:46;101127.28;;;7.98;100.00
45541;BME280;31265;49.680;8.608;2023-05-25T01:12:16;101132.16;;;7.92;100.00
45541;BME280;31265;49.680;8.608;2023-05-25T01:14:48;101125.69;;;7.89;100.00
45541;BME280;31265;49.680;8.608;2023-05-25T01:17:19;101120.00;;;7.82;100.00
45541;BME280;31265;49.680;8.608;2023-05-25T01:19:47;101115.72;;;7.81;100.00
45541;BME280;31265;49.680;8.608;2023-05-25T01:22:40;101115.81;;;7.94;100.00
45541;BME280;31265;49.680;8.608;2023-05-25T01:25:12;101115.69;;;7.86;100.00
45541;BME280;31265;49.680;8.608;2023-05-25T01:27:43;101115.69;;;7.86;100.00
45541;BME280;31265;49.680;8.608;2023-05-25T01:30:15;101124.09;;;7.75;100.00
45541;BME280;31265;49.680;8.608;2023-05-25T01:32:44;101127.78;;;7.64;100.00
45541;BME280;31265;49.680;8.608;2023-05-25T01:35:13;101122.25;;;7.64;100.00
45541;BME280;31265;49.680;8.608;2023-05-25T01:37:45;101123.06;;;7.59;100.00
45541;BME280;31265;49.680;8.608;2023-05-25T01:40:14;101130.44;;;7.51;100.00
45541;BME280;31265;49.680;8.608;2023-05-25T01:42:42;101131.94;;;7.52;100.00
45541;BME280;31265;49.680;8.608;2023-05-25T01:45:12;101133.56;;;7.42;100.00
45541;BME280;31265;49.680;8.608;2023-05-25T01:47:45;101136.94;;;7.35;100.00
45541;BME280;31265;49.680;8.608;2023-05-25T01:50:21;101133.94;;;7.32;100.00
45541;BME280;31265;49.680;8.608;2023-05-25T01:52:55;101142.31;;;7.46;100.00
45541;BME280;31265;49.680;8.608;2023-05-25T01:55:27;101148.94;;;7.56;100.00
45541;BME280;31265;49.680;8.608;2023-05-25T01:57:58;101141.78;;;7.66;100.00
45541;BME280;31265;49.680;8.608;2023-05-25T02:00:28;101137.31;;;7.63;100.00
45541;BME280;31265;49.680;8.608;2023-05-25T02:02:58;101141.03;;;7.66;100.00
45541;BME280;31265;49.680;8.608;2023-05-25T02:05:27;101133.00;;;7.68;100.00
45541;BME280;31265;49.680;8.608;2023-05-25T02:07:57;101129.19;;;7.71;100.00
45541;BME280;31265;49.680;8.608;2023-05-25T02:10:29;101128.22;;;7.68;100.00
45541;BME280;31265;49.680;8.608;2023-05-25T02:12:58;101118.94;;;7.66;100.00
45541;BME280;31265;49.680;8.608;2023-05-25T02:15:32;101129.34;;;7.60;100.00
45541;BME280;31265;49.680;8.608;2023-05-25T02:18:01;101127.91;;;7.53;100.00
45541;BME280;31265;49.680;8.608;2023-05-25T02:20:31;101123.13;;;7.53;100.00
45541;BME280;31265;49.680;8.608;2023-05-25T02:23:03;101119.47;;;7.45;100.00
45541;BME280;31265;49.680;8.608;2023-05-25T02:25:31;101119.97;;;7.44;100.00
45541;BME280;31265;49.680;8.608;2023-05-25T02:28:00;101119.53;;;7.40;100.00
45541;BME280;31265;49.680;8.608;2023-05-25T02:30:28;101114.84;;;7.53;100.00
45541;BME280;31265;49.680;8.608;2023-05-25T02:32:57;101118.44;;;7.67;100.00
45541;BME280;31265;49.680;8.608;2023-05-25T02:35:28;101124.47;;;7.85;100.00
45541;BME280;31265;49.680;8.608;2023-05-25T02:37:56;101128.13;;;7.93;100.00
45541;BME280;31265;49.680;8.608;2023-05-25T02:40:26;101121.63;;;8.09;100.00
45541;BME280;31265;49.680;8.608;2023-05-25T02:42:54;101117.06;;;8.12;100.00
45541;BME280;31265;49.680;8.608;2023-05-25T02:45:22;101115.41;;;8.03;100.00
45541;BME280;31265;49.680;8.608;2023-05-25T02:47:51;101113.25;;;7.96;100.00
45541;BME280;31265;49.680;8.608;2023-05-25T02:50:21;101110.91;;;7.87;100.00
45541;BME280;31265;49.680;8.608;2023-05-25T02:52:54;101110.56;;;7.90;100.00
45541;BME280;31265;49.680;8.608;2023-05-25T02:55:22;101117.91;;;7.88;100.00
45541;BME280;31265;49.680;8.608;2023-05-25T02:57:54;101109.97;;;7.97;100.00
45541;BME280;31265;49.680;8.608;2023-05-25T03:00:39;101116.09;;;8.09;100.00
45541;BME280;31265;49.680;8.608;2023-05-25T03:03:08;101120.66;;;8.07;100.00
45541;BME280;31265;49.680;8.608;2023-05-25T03:05:37;101115.34;;;8.09;100.00
45541;BME280;31265;49.680;8.608;2023-05-25T03:08:05;101122.97;;;8.03;100.00
45541;BME280;31265;49.680;8.608;2023-05-25T03:10:34;101129.16;;;8.09;100.00
45541;BME280;31265;49.680;8.608;2023-05-25T03:13:06;101120.88;;;8.09;100.00
45541;BME280;31265;49.680;8.608;2023-05-25T03:15:34;101128.41;;;8.08;100.00
45541;BME280;31265;49.680;8.608;2023-05-25T03:18:04;101117.66;;;8.05;100.00
45541;BME280;31265;49.680;8.608;2023-05-25T03:20:36;101129.31;;;7.97;100.00
45541;BME280;31265;49.680;8.608;2023-05-25T03:23:05;101124.41;;;7.90;100.00
45541;BME280;31265;49.680;8.608;2023-05-25T03:25:36;101117.81;;;7.93;100.00
45541;BME280;31265;49.680;8.608;2023-05-25T03:28:05;101122.97;;;8.03;100.00
45541;BME280;31265;49.680;8.608;2023-05-25T03:30:37;101128.94;;;8.07;100.00
45541;BME280;31265;49.680;8.608;2023-05-25T03:33:05;101120.88;;;8.09;100.00
45541;BME280;31265;49.680;8.608;2023-05-25T03:35:43;101109.69;;;8.01;100.00
45541;BME280;31265;49.680;8.608;2023-05-25T03:38:12;101115.94;;;8.02;100.00
45541;BME280;31265;49.680;8.608;2023-05-25T03:40:41;101121.78;;;7.98;100.00
45541;BME280;31265;49.680;8.608;2023-05-25T03:43:09;101117.53;;;7.97;100.00
45541;BME280;31265;49.680;8.608;2023-05-25T03:45:39;101126.28;;;8.01;100.00
45541;BME280;31265;49.680;8.608;2023-05-25T03:48:09;101128.13;;;8.12;100.00
45541;BME280;31265;49.680;8.608;2023-05-25T03:50:37;101134.75;;;8.03;100.00
45541;BME280;31265;49.680;8.608;2023-05-25T03:53:06;101128.84;;;8.12;100.00
45541;BME280;31265;49.680;8.608;2023-05-25T03:55:35;101130.88;;;8.12;100.00
45541;BME280;31265;49.680;8.608;2023-05-25T03:58:05;101134.59;;;8.14;100.00
45541;BME280;31265;49.680;8.608;2023-05-25T04:00:36;101141.00;;;8.23;100.00
45541;BME280;31265;49.680;8.608;2023-05-25T04:03:06;101141.97;;;8.44;100.00
45541;BME280;31265;49.680;8.608;2023-05-25T04:05:37;101148.47;;;8.60;100.00
45541;BME280;31265;49.680;8.608;2023-05-25T04:08:05;101144.88;;;8.65;100.00
45541;BME280;31265;49.680;8.608;2023-05-25T04:10:34;101155.44;;;8.67;100.00
45541;BME280;31265;49.680;8.608;2023-05-25T04:13:02;101169.09;;;8.78;100.00
45541;BME280;31265;49.680;8.608;2023-05-25T04:15:31;101165.81;;;8.93;100.00
45541;BME280;31265;49.680;8.608;2023-05-25T04:18:07;101172.81;;;8.94;100.00
45541;BME280;31265;49.680;8.608;2023-05-25T04:20:36;101178.34;;;9.07;100.00
45541;BME280;31265;49.680;8.608;2023-05-25T04:23:06;101185.06;;;8.98;100.00
45541;BME280;31265;49.680;8.608;2023-05-25T04:25:35;101182.41;;;8.93;100.00
45541;BME280;31265;49.680;8.608;2023-05-25T04:28:04;101184.13;;;8.96;100.00
45541;BME280;31265;49.680;8.608;2023-05-25T04:30:55;101184.00;;;8.88;100.00
45541;BME280;31265;49.680;8.608;2023-05-25T04:33:34;101190.38;;;8.83;100.00
45541;BME280;31265;49.680;8.608;2023-05-25T04:36:30;101189.31;;;8.86;100.00
45541;BME280;31265;49.680;8.608;2023-05-25T04:39:01;101185.59;;;8.83;100.00
45541;BME280;31265;49.680;8.608;2023-05-25T04:41:32;101194.56;;;9.03;100.00
45541;BME280;31265;49.680;8.608;2023-05-25T04:44:05;101186.88;;;9.09;100.00
45541;BME280;31265;49.680;8.608;2023-05-25T04:46:48;101186.59;;;9.13;100.00
45541;BME280;31265;49.680;8.608;2023-05-25T04:49:25;101187.03;;;9.30;100.00
45541;BME280;31265;49.680;8.608;2023-05-25T04:51:54;101193.81;;;9.29;100.00
45541;BME280;31265;49.680;8.608;2023-05-25T04:54:23;101202.69;;;9.28;100.00
45541;BME280;31265;49.680;8.608;2023-05-25T04:56:52;101206.81;;;9.34;100.00
45541;BME280;31265;49.680;8.608;2023-05-25T04:59:21;101209.06;;;9.36;100.00
45541;BME280;31265;49.680;8.608;2023-05-25T05:01:50;101207.25;;;9.52;100.00
45541;BME280;31265;49.680;8.608;2023-05-25T05:04:18;101192.41;;;9.76;100.00
45541;BME280;31265;49.680;8.608;2023-05-25T05:06:49;101207.00;;;9.89;100.00
45541;BME280;31265;49.680;8.608;2023-05-25T05:09:22;101203.88;;;10.06;100.00
45541;BME280;31265;49.680;8.608;2023-05-25T05:11:55;101210.31;;;10.22;100.00
45541;BME280;31265;49.680;8.608;2023-05-25T05:14:27;101209.41;;;10.41;100.00
45541;BME280;31265;49.680;8.608;2023-05-25T05:16:55;101216.84;;;10.46;100.00
45541;BME280;31265;49.680;8.608;2023-05-25T05:19:24;101217.28;;;10.50;100.00
45541;BME280;31265;49.680;8.608;2023-05-25T05:21:56;101224.78;;;10.63;100.00
45541;BME280;31265;49.680;8.608;2023-05-25T05:24:26;101226.91;;;10.91;100.00
45541;BME280;31265;49.680;8.608;2023-05-25T05:26:54;101222.09;;;10.91;100.00
45541;BME280;31265;49.680;8.608;2023-05-25T05:29:37;101230.69;;;11.01;100.00
45541;BME280;31265;49.680;8.608;2023-05-25T05:32:07;101217.84;;;11.19;100.00
45541;BME280;31265;49.680;8.608;2023-05-25T05:34:35;101210.91;;;11.33;100.00
45541;BME280;31265;49.680;8.608;2023-05-25T05:37:09;101222.84;;;11.49;100.00
45541;BME280;31265;49.680;8.608;2023-05-25T05:39:37;101214.97;;;11.69;100.00
45541;BME280;31265;49.680;8.608;2023-05-25T05:42:06;101224.00;;;11.61;100.00
45541;BME280;31265;49.680;8.608;2023-05-25T05:44:35;101228.72;;;11.38;100.00
45541;BME280;31265;49.680;8.608;2023-05-25T05:47:04;101224.78;;;11.33;100.00
45541;BME280;31265;49.680;8.608;2023-05-25T05:49:33;101220.38;;;11.38;100.00
45541;BME280;31265;49.680;8.608;2023-05-25T05:52:04;101230.78;;;11.45;100.00
45541;BME280;31265;49.680;8.608;2023-05-25T05:54:34;101232.28;;;11.46;100.00
45541;BME280;31265;49.680;8.608;2023-05-25T05:57:09;101228.41;;;11.49;100.00
45541;BME280;31265;49.680;8.608;2023-05-25T05:59:38;101235.47;;;11.50;100.00
45541;BME280;31265;49.680;8.608;2023-05-25T06:02:08;101239.59;;;11.65;100.00
45541;BME280;31265;49.680;8.608;2023-05-25T06:04:36;101235.03;;;11.75;100.00
45541;BME280;31265;49.680;8.608;2023-05-25T06:07:06;101238.25;;;11.87;100.00
45541;BME280;31265;49.680;8.608;2023-05-25T06:09:36;101239.81;;;12.03;100.00
45541;BME280;31265;49.680;8.608;2023-05-25T06:12:05;101241.34;;;12.19;100.00
45541;BME280;31265;49.680;8.608;2023-05-25T06:14:33;101254.72;;;12.29;100.00
45541;BME280;31265;49.680;8.608;2023-05-25T06:17:05;101251.78;;;12.42;100.00
45541;BME280;31265;49.680;8.608;2023-05-25T06:19:34;101250.88;;;12.47;100.00
45541;BME280;31265;49.680;8.608;2023-05-25T06:22:03;101252.91;;;12.46;100.00
45541;BME280;31265;49.680;8.608;2023-05-25T06:24:31;101255.53;;;12.60;100.00
45541;BME280;31265;49.680;8.608;2023-05-25T06:27:01;101251.28;;;12.82;100.00
45541;BME280;31265;49.680;8.608;2023-05-25T06:29:30;101253.72;;;13.01;100.00
45541;BME280;31265;49.680;8.608;2023-05-25T06:31:59;101254.47;;;13.09;100.00
45541;BME280;31265;49.680;8.608;2023-05-25T06:34:28;101254.25;;;13.38;100.00
45541;BME280;31265;49.680;8.608;2023-05-25T06:36:57;101249.78;;;13.58;100.00
45541;BME280;31265;49.680;8.608;2023-05-25T06:39:26;101256.25;;;13.68;100.00
45541;BME280;31265;49.680;8.608;2023-05-25T06:41:54;101259.88;;;13.93;100.00
45541;BME280;31265;49.680;8.608;2023-05-25T06:44:30;101255.59;;;14.33;100.00
45541;BME280;31265;49.680;8.608;2023-05-25T06:47:01;101260.41;;;14.40;98.37
45541;BME280;31265;49.680;8.608;2023-05-25T06:49:30;101255.28;;;14.61;100.00
45541;BME280;31265;49.680;8.608;2023-05-25T06:52:00;101261.72;;;14.72;98.19
45541;BME280;31265;49.680;8.608;2023-05-25T06:54:29;101260.19;;;15.03;94.95
45541;BME280;31265;49.680;8.608;2023-05-25T06:56:58;101258.72;;;15.20;94.46
45541;BME280;31265;49.680;8.608;2023-05-25T06:59:27;101270.41;;;15.26;89.67
45541;BME280;31265;49.680;8.608;2023-05-25T07:01:57;101259.41;;;15.45;93.14
45541;BME280;31265;49.680;8.608;2023-05-25T07:04:26;101266.81;;;15.68;88.52
45541;BME280;31265;49.680;8.608;2023-05-25T07:06:54;101261.34;;;15.78;88.89
45541;BME280;31265;49.680;8.608;2023-05-25T07:09:22;101259.63;;;16.09;83.73
45541;BME280;31265;49.680;8.608;2023-05-25T07:11:51;101262.81;;;16.23;82.59
45541;BME280;31265;49.680;8.608;2023-05-25T07:14:19;101267.41;;;16.28;88.01
45541;BME280;31265;49.680;8.608;2023-05-25T07:16:48;101264.09;;;16.40;82.72
45541;BME280;31265;49.680;8.608;2023-05-25T07:19:17;101259.22;;;16.13;85.10
45541;BME280;31265;49.680;8.608;2023-05-25T07:21:46;101264.44;;;16.53;82.34
45541;BME280;31265;49.680;8.608;2023-05-25T07:24:15;101261.66;;;16.53;80.96
45541;BME280;31265;49.680;8.608;2023-05-25T07:26:44;101256.22;;;16.92;79.71
45541;BME280;31265;49.680;8.608;2023-05-25T07:29:13;101257.84;;;16.95;78.46
45541;BME280;31265;49.680;8.608;2023-05-25T07:31:43;101260.41;;;17.20;77.72
45541;BME280;31265;49.680;8.608;2023-05-25T07:34:11;101262.34;;;17.28;77.33
45541;BME280;31265;49.680;8.608;2023-05-25T07:36:41;101256.91;;;17.39;75.87
45541;BME280;31265;49.680;8.608;2023-05-25T07:39:09;101259.88;;;17.61;74.74
45541;BME280;31265;49.680;8.608;2023-05-25T07:41:38;101248.34;;;17.76;74.53
45541;BME280;31265;49.680;8.608;2023-05-25T07:44:07;101255.72;;;17.62;76.66
45541;BME280;31265;49.680;8.608;2023-05-25T07:46:35;101256.50;;;17.82;73.67
45541;BME280;31265;49.680;8.608;2023-05-25T07:49:04;101253.66;;;17.62;73.19
45541;BME280;31265;49.680;8.608;2023-05-25T07:51:38;101262.09;;;17.82;73.72
45541;BME280;31265;49.680;8.608;2023-05-25T07:54:07;101269.31;;;17.75;75.92
45541;BME280;31265;49.680;8.608;2023-05-25T07:56:36;101271.72;;;17.89;74.50
45541;BME280;31265;49.680;8.608;2023-05-25T07:59:05;101258.72;;;17.83;74.12
45541;BME280;31265;49.680;8.608;2023-05-25T08:01:34;101273.03;;;17.78;74.13
45541;BME280;31265;49.680;8.608;2023-05-25T08:04:03;101291.75;;;18.34;72.04
45541;BME280;31265;49.680;8.608;2023-05-25T08:06:31;101274.16;;;18.74;71.27
45541;BME280;31265;49.680;8.608;2023-05-25T08:09:02;101277.06;;;18.55;71.48
45541;BME280;31265;49.680;8.608;2023-05-25T08:11:31;101271.94;;;18.73;74.46
45541;BME280;31265;49.680;8.608;2023-05-25T08:14:00;101276.75;;;18.51;74.57
45541;BME280;31265;49.680;8.608;2023-05-25T08:16:30;101274.66;;;19.23;70.37
45541;BME280;31265;49.680;8.608;2023-05-25T08:18:58;101267.19;;;19.06;70.86
45541;BME280;31265;49.680;8.608;2023-05-25T08:21:27;101271.91;;;19.35;72.89
45541;BME280;31265;49.680;8.608;2023-05-25T08:23:57;101273.78;;;19.42;76.92
45541;BME280;31265;49.680;8.608;2023-05-25T08:26:26;101278.63;;;20.06;72.04
45541;BME280;31265;49.680;8.608;2023-05-25T08:29:13;101273.75;;;20.18;69.96
45541;BME280;31265;49.680;8.608;2023-05-25T08:31:41;101275.50;;;20.35;67.65
45541;BME280;31265;49.680;8.608;2023-05-25T08:34:13;101267.38;;;19.51;67.34
45541;BME280;31265;49.680;8.608;2023-05-25T08:36:42;101267.28;;;19.18;69.37
45541;BME280;31265;49.680;8.608;2023-05-25T08:39:12;101285.09;;;19.11;76.63
45541;BME280;31265;49.680;8.608;2023-05-25T08:41:45;101280.31;;;20.00;68.59
45541;BME280;31265;49.680;8.608;2023-05-25T08:44:14;101281.91;;;20.03;69.95
45541;BME280;31265;49.680;8.608;2023-05-25T08:46:46;101274.75;;;20.23;70.53
45541;BME280;31265;49.680;8.608;2023-05-25T08:49:14;101289.38;;;19.98;72.93
45541;BME280;31265;49.680;8.608;2023-05-25T08:51:47;101283.22;;;20.35;68.56
45541;BME280;31265;49.680;8.608;2023-05-25T08:54:18;101278.59;;;20.51;66.77
45541;BME280;31265;49.680;8.608;2023-05-25T08:56:49;101286.22;;;21.08;66.24
45541;BME280;31265;49.680;8.608;2023-05-25T08:59:30;101290.88;;;20.79;67.43
45541;BME280;31265;49.680;8.608;2023-05-25T09:04:51;101287.94;;;20.89;68.77
45541;BME280;31265;49.680;8.608;2023-05-25T09:07:20;101290.91;;;21.89;63.18
45541;BME280;31265;49.680;8.608;2023-05-25T09:09:49;101293.28;;;22.07;61.94
45541;BME280;31265;49.680;8.608;2023-05-25T09:12:19;101290.22;;;21.77;66.30
45541;BME280;31265;49.680;8.608;2023-05-25T09:14:52;101293.66;;;21.76;62.52
45541;BME280;31265;49.680;8.608;2023-05-25T09:17:20;101289.94;;;21.59;64.98
45541;BME280;31265;49.680;8.608;2023-05-25T09:19:49;101291.00;;;21.66;61.39
45541;BME280;31265;49.680;8.608;2023-05-25T09:22:18;101290.09;;;21.26;61.99
45541;BME280;31265;49.680;8.608;2023-05-25T09:24:46;101290.59;;;21.34;63.31
45541;BME280;31265;49.680;8.608;2023-05-25T09:27:16;101296.97;;;21.46;62.73
45541;BME280;31265;49.680;8.608;2023-05-25T09:29:46;101291.88;;;20.96;63.25
45541;BME280;31265;49.680;8.608;2023-05-25T09:32:17;101279.94;;;21.21;62.78
45541;BME280;31265;49.680;8.608;2023-05-25T09:34:46;101288.25;;;21.42;63.71
45541;BME280;31265;49.680;8.608;2023-05-25T09:37:15;101282.88;;;21.46;61.20
45541;BME280;31265;49.680;8.608;2023-05-25T09:39:46;101285.03;;;22.11;61.97
45541;BME280;31265;49.680;8.608;2023-05-25T09:42:15;101279.94;;;21.70;62.33
45541;BME280;31265;49.680;8.608;2023-05-25T09:44:44;101286.53;;;21.86;60.08
45541;BME280;31265;49.680;8.608;2023-05-25T09:47:12;101285.72;;;21.98;59.64
45541;BME280;31265;49.680;8.608;2023-05-25T09:49:44;101293.06;;;22.03;59.02
45541;BME280;31265;49.680;8.608;2023-05-25T09:52:15;101285.25;;;22.15;58.47
45541;BME280;31265;49.680;8.608;2023-05-25T09:54:44;101278.31;;;21.79;59.20
45541;BME280;31265;49.680;8.608;2023-05-25T09:57:13;101286.78;;;22.30;56.21
45541;BME280;31265;49.680;8.608;2023-05-25T09:59:43;101282.66;;;22.19;58.90
45541;BME280;31265;49.680;8.608;2023-05-25T10:02:12;101288.03;;;22.94;57.10
45541;BME280;31265;49.680;8.608;2023-05-25T10:04:41;101285.09;;;22.78;56.60
45541;BME280;31265;49.680;8.608;2023-05-25T10:07:12;101301.56;;;22.95;53.95
45541;BME280;31265;49.680;8.608;2023-05-25T10:09:44;101306.56;;;22.97;53.32
45541;BME280;31265;49.680;8.608;2023-05-25T10:12:16;101301.66;;;22.05;54.00
45541;BME280;31265;49.680;8.608;2023-05-25T10:14:49;101297.56;;;21.57;55.13
45541;BME280;31265;49.680;8.608;2023-05-25T10:17:22;101301.72;;;21.56;53.10
45541;BME280;31265;49.680;8.608;2023-05-25T10:19:54;101296.66;;;21.66;53.51
45541;BME280;31265;49.680;8.608;2023-05-25T10:22:31;101306.94;;;21.73;54.03
45541;BME280;31265;49.680;8.608;2023-05-25T10:25:06;101294.31;;;22.00;53.82
45541;BME280;31265;49.680;8.608;2023-05-25T10:27:38;101301.69;;;22.30;52.71
45541;BME280;31265;49.680;8.608;2023-05-25T10:30:08;101295.56;;;22.89;53.73
45541;BME280;31265;49.680;8.608;2023-05-25T10:32:38;101297.22;;;23.50;53.10
45541;BME280;31265;49.680;8.608;2023-05-25T10:35:07;101287.41;;;23.09;54.16
45541;BME280;31265;49.680;8.608;2023-05-25T10:37:38;101291.69;;;22.96;51.16
45541;BME280;31265;49.680;8.608;2023-05-25T10:40:08;101285.47;;;22.45;55.09
45541;BME280;31265;49.680;8.608;2023-05-25T10:42:36;101280.88;;;22.51;50.45
45541;BME280;31265;49.680;8.608;2023-05-25T10:45:07;101279.00;;;22.56;51.21
45541;BME280;31265;49.680;8.608;2023-05-25T10:47:38;101277.13;;;22.74;50.36
45541;BME280;31265;49.680;8.608;2023-05-25T10:50:18;101286.03;;;22.96;51.58
45541;BME280;31265;49.680;8.608;2023-05-25T10:52:56;101274.34;;;23.02;50.51
45541;BME280;31265;49.680;8.608;2023-05-25T10:55:26;101278.75;;;23.05;50.46
45541;BME280;31265;49.680;8.608;2023-05-25T10:58:07;101273.53;;;23.43;50.87
45541;BME280;31265;49.680;8.608;2023-05-25T11:00:36;101269.06;;;23.97;53.95
45541;BME280;31265;49.680;8.608;2023-05-25T11:03:05;101258.66;;;23.72;49.38
45541;BME280;31265;49.680;8.608;2023-05-25T11:05:37;101263.59;;;23.72;51.43
45541;BME280;31265;49.680;8.608;2023-05-25T11:08:08;101264.63;;;24.40;47.69
45541;BME280;31265;49.680;8.608;2023-05-25T11:10:51;101265.19;;;24.36;47.78
45541;BME280;31265;49.680;8.608;2023-05-25T11:13:33;101270.56;;;24.30;50.37
45541;BME280;31265;49.680;8.608;2023-05-25T11:16:19;101260.91;;;23.74;47.54
45541;BME280;31265;49.680;8.608;2023-05-25T11:18:51;101257.28;;;24.03;47.41
45541;BME280;31265;49.680;8.608;2023-05-25T11:21:40;101253.00;;;24.02;51.92
45541;BME280;31265;49.680;8.608;2023-05-25T11:24:16;101252.41;;;24.51;50.63
45541;BME280;31265;49.680;8.608;2023-05-25T11:27:05;101255.78;;;25.13;47.37
45541;BME280;31265;49.680;8.608;2023-05-25T11:29:34;101249.91;;;25.25;45.26
45541;BME280;31265;49.680;8.608;2023-05-25T11:32:04;101261.63;;;25.17;46.68
45541;BME280;31265;49.680;8.608;2023-05-25T11:34:32;101253.97;;;25.38;43.22
45541;BME280;31265;49.680;8.608;2023-05-25T11:37:01;101248.19;;;24.68;46.32
45541;BME280;31265;49.680;8.608;2023-05-25T11:39:31;101232.28;;;25.46;43.77
45541;BME280;31265;49.680;8.608;2023-05-25T11:42:04;101240.59;;;25.40;42.82
45541;BME280;31265;49.680;8.608;2023-05-25T11:44:34;101234.00;;;25.36;42.01
45541;BME280;31265;49.680;8.608;2023-05-25T11:47:05;101236.94;;;25.04;46.21
45541;BME280;31265;49.680;8.608;2023-05-25T11:49:38;101233.28;;;24.36;46.70
45541;BME280;31265;49.680;8.608;2023-05-25T11:52:08;101230.97;;;24.16;42.62
45541;BME280;31265;49.680;8.608;2023-05-25T11:54:38;101246.91;;;24.23;43.93
45541;BME280;31265;49.680;8.608;2023-05-25T11:57:13;101226.03;;;24.17;42.93
45541;BME280;31265;49.680;8.608;2023-05-25T11:59:46;101225.88;;;24.94;42.61
45541;BME280;31265;49.680;8.608;2023-05-25T12:02:15;101231.09;;;25.34;41.11
45541;BME280;31265;49.680;8.608;2023-05-25T12:04:51;101227.34;;;25.83;40.59
45541;BME280;31265;49.680;8.608;2023-05-25T12:07:21;101234.16;;;25.75;39.48
45541;BME280;31265;49.680;8.608;2023-05-25T12:09:51;101226.84;;;25.17;40.23
45541;BME280;31265;49.680;8.608;2023-05-25T12:12:19;101221.66;;;25.47;38.96
45541;BME280;31265;49.680;8.608;2023-05-25T12:14:47;101232.78;;;25.59;39.10
45541;BME280;31265;49.680;8.608;2023-05-25T12:17:18;101219.56;;;24.96;41.08
45541;BME280;31265;49.680;8.608;2023-05-25T12:19:49;101208.22;;;25.14;40.29
45541;BME280;31265;49.680;8.608;2023-05-25T12:22:17;101204.75;;;25.15;39.53
45541;BME280;31265;49.680;8.608;2023-05-25T12:24:48;101205.78;;;25.06;41.18
45541;BME280;31265;49.680;8.608;2023-05-25T12:27:18;101202.19;;;24.87;39.50
45541;BME280;31265;49.680;8.608;2023-05-25T12:29:48;101207.50;;;24.79;41.68
45541;BME280;31265;49.680;8.608;2023-05-25T12:32:19;101196.56;;;24.72;39.17
45541;BME280;31265;49.680;8.608;2023-05-25T12:34:47;101202.22;;;25.05;41.32
45541;BME280;31265;49.680;8.608;2023-05-25T12:37:17;101196.03;;;24.59;41.54
45541;BME280;31265;49.680;8.608;2023-05-25T12:39:46;101180.84;;;24.37;42.93
45541;BME280;31265;49.680;8.608;2023-05-25T12:42:18;101196.94;;;24.98;39.58
45541;BME280;31265;49.680;8.608;2023-05-25T12:44:53;101193.84;;;25.25;39.78
45541;BME280;31265;49.680;8.608;2023-05-25T12:47:24;101199.53;;;25.43;40.11
45541;BME280;31265;49.680;8.608;2023-05-25T12:50:09;101187.50;;;25.45;41.47
45541;BME280;31265;49.680;8.608;2023-05-25T12:52:39;101188.56;;;25.53;39.35
45541;BME280;31265;49.680;8.608;2023-05-25T12:55:24;101184.28;;;25.35;38.97
45541;BME280;31265;49.680;8.608;2023-05-25T12:57:55;101188.34;;;24.96;40.91
45541;BME280;31265;49.680;8.608;2023-05-25T13:00:25;101192.31;;;24.88;39.60
45541;BME280;31265;49.680;8.608;2023-05-25T13:02:54;101182.03;;;24.63;39.23
45541;BME280;31265;49.680;8.608;2023-05-25T13:05:25;101177.25;;;24.68;38.76
45541;BME280;31265;49.680;8.608;2023-05-25T13:07:54;101181.22;;;24.61;38.71
45541;BME280;31265;49.680;8.608;2023-05-25T13:10:23;101185.53;;;24.80;38.09